sensor_id;sensor_type;location;lat;lon;timestamp;pressure;altitude;pressure_sealevel;temperature;humidity
27304;BME280;14791;52.392;13.092;2023-02-14T00:02:08;103335.70;;;14.15;47.06
27304;BME280;14791;52.392;13.092;2023-02-14T00:04:37;103337.04;;;14.15;47.05
27304;BME280;14791;52.392;13.092;2023-02-14T00:07:08;103334.34;;;14.15;47.07
27304;BME280;14791;52.392;13.092;2023-02-14T00:09:37;103328.55;;;14.14;47.16
27304;BME280;14791;52.392;13.092;2023-02-14T00:12:06;103328.97;;;14.15;47.15
27304;BME280;14791;52.392;13.092;2023-02-14T00:14:35;103329.38;;;14.16;47.12
27304;BME280;14791;52.392;13.092;2023-02-14T00:17:23;103329.77;;;14.17;47.05
27304;BME280;14791;52.392;13.092;2023-02-14T00:19:53;103325.86;;;14.14;47.03
27304;BME280;14791;52.392;13.092;2023-02-14T00:22:22;103337.59;;;14.12;46.97
27304;BME280;14791;52.392;13.092;2023-02-14T00:24:53;103341.27;;;14.09;47.00
27304;BME280;14791;52.392;13.092;2023-02-14T00:27:23;103333.25;;;14.08;46.97
27304;BME280;14791;52.392;13.092;2023-02-14T00:29:52;103335.58;;;14.05;46.96
27304;BME280;14791;52.392;13.092;2023-02-14T00:32:23;103328.87;;;14.05;46.95
27304;BME280;14791;52.392;13.092;2023-02-14T00:34:53;103335.19;;;14.04;46.96
27304;BME280;14791;52.392;13.092;2023-02-14T00:37:40;103325.30;;;14.04;46.92
27304;BME280;14791;52.392;13.092;2023-02-14T00:40:19;103320.88;;;14.03;46.87
27304;BME280;14791;52.392;13.092;2023-02-14T00:42:48;103329.61;;;13.97;47.01
27304;BME280;14791;52.392;13.092;2023-02-14T00:45:17;103333.64;;;13.97;46.99
27304;BME280;14791;52.392;13.092;2023-02-14T00:47:47;103336.80;;;13.96;47.02
27304;BME280;14791;52.392;13.092;2023-02-14T00:50:16;103342.58;;;13.97;46.98
27304;BME280;14791;52.392;13.092;2023-02-14T00:52:45;103342.53;;;13.99;47.03
27304;BME280;14791;52.392;13.092;2023-02-14T00:55:14;103339.84;;;13.99;47.03
27304;BME280;14791;52.392;13.092;2023-02-14T00:57:43;103333.02;;;14.02;46.96
27304;BME280;14791;52.392;13.092;2023-02-14T01:00:12;103325.82;;;14.02;46.99
27304;BME280;14791;52.392;13.092;2023-02-14T01:02:43;103321.75;;;14.04;46.92
27304;BME280;14791;52.392;13.092;2023-02-14T01:05:14;103320.41;;;14.04;46.97
27304;BME280;14791;52.392;13.092;2023-02-14T01:07:43;103321.23;;;14.06;46.90
27304;BME280;14791;52.392;13.092;2023-02-14T01:10:12;103314.91;;;14.07;46.82
27304;BME280;14791;52.392;13.092;2023-02-14T01:12:41;103320.72;;;14.08;46.69
27304;BME280;14791;52.392;13.092;2023-02-14T01:15:10;103312.30;;;14.06;46.69
27304;BME280;14791;52.392;13.092;2023-02-14T01:17:38;103318.11;;;14.05;46.65
27304;BME280;14791;52.392;13.092;2023-02-14T01:20:09;103313.69;;;14.04;46.56
27304;BME280;14791;52.392;13.092;2023-02-14T01:22:38;103310.17;;;14.02;46.54
27304;BME280;14791;52.392;13.092;2023-02-14T01:25:07;103309.34;;;14.00;46.55
27304;BME280;14791;52.392;13.092;2023-02-14T01:27:36;103307.17;;;13.98;46.61
27304;BME280;14791;52.392;13.092;2023-02-14T01:30:06;103297.84;;;13.96;46.59
27304;BME280;14791;52.392;13.092;2023-02-14T01:32:35;103296.02;;;13.97;46.59
27304;BME280;14791;52.392;13.092;2023-02-14T01:35:07;103290.65;;;13.97;46.56
27304;BME280;14791;52.392;13.092;2023-02-14T01:37:36;103291.99;;;13.97;46.58
27304;BME280;14791;52.392;13.092;2023-02-14T01:40:06;103284.88;;;13.96;46.53
27304;BME280;14791;52.392;13.092;2023-02-14T01:42:38;103288.00;;;13.95;46.53
27304;BME280;14791;52.392;13.092;2023-02-14T01:45:16;103287.13;;;13.95;46.56
27304;BME280;14791;52.392;13.092;2023-02-14T01:47:53;103288.99;;;13.93;46.53
27304;BME280;14791;52.392;13.092;2023-02-14T01:50:31;103294.44;;;13.91;46.63
27304;BME280;14791;52.392;13.092;2023-02-14T01:53:11;103300.25;;;13.91;46.54
27304;BME280;14791;52.392;13.092;2023-02-14T01:55:45;103295.12;;;13.85;46.60
27304;BME280;14791;52.392;13.092;2023-02-14T01:58:19;103293.06;;;13.79;46.64
27304;BME280;14791;52.392;13.092;2023-02-14T02:00:50;103293.97;;;13.78;46.68
27304;BME280;14791;52.392;13.092;2023-02-14T02:03:36;103295.03;;;13.74;46.68
27304;BME280;14791;52.392;13.092;2023-02-14T02:06:14;103299.97;;;13.73;46.77
27304;BME280;14791;52.392;13.092;2023-02-14T02:11:38;103291.59;;;13.69;46.92
27304;BME280;14791;52.392;13.092;2023-02-14T02:14:16;103297.05;;;13.68;47.04
27304;BME280;14791;52.392;13.092;2023-02-14T02:26:14;103299.88;;;13.63;47.07
27304;BME280;14791;52.392;13.092;2023-02-14T02:43:14;103300.81;;;13.49;47.18
27304;BME280;14791;52.392;13.092;2023-02-14T02:51:52;103295.53;;;13.32;47.42
27304;BME280;14791;52.392;13.092;2023-02-14T02:54:43;103287.52;;;13.31;47.52
27304;BME280;14791;52.392;13.092;2023-02-14T02:57:22;103283.05;;;13.31;47.51
27304;BME280;14791;52.392;13.092;2023-02-14T02:59:49;103282.94;;;13.34;47.43
27304;BME280;14791;52.392;13.092;2023-02-14T03:02:24;103286.81;;;13.39;47.29
27304;BME280;14791;52.392;13.092;2023-02-14T03:05:00;103294.29;;;13.43;47.30
27304;BME280;14791;52.392;13.092;2023-02-14T03:07:34;103291.92;;;13.47;47.30
27304;BME280;14791;52.392;13.092;2023-02-14T03:10:16;103290.47;;;13.50;47.25
27304;BME280;14791;52.392;13.092;2023-02-14T03:12:56;103284.11;;;13.52;47.23
27304;BME280;14791;52.392;13.092;2023-02-14T03:24:02;103288.98;;;13.54;47.14
27304;BME280;14791;52.392;13.092;2023-02-14T03:26:32;103284.08;;;13.54;47.18
27304;BME280;14791;52.392;13.092;2023-02-14T03:29:00;103285.42;;;13.54;47.09
27304;BME280;14791;52.392;13.092;2023-02-14T03:37:19;103282.33;;;13.53;47.11
27304;BME280;14791;52.392;13.092;2023-02-14T03:40:07;103286.04;;;13.49;47.28
27304;BME280;14791;52.392;13.092;2023-02-14T03:42:40;103290.06;;;13.49;47.30
27304;BME280;14791;52.392;13.092;2023-02-14T03:45:12;103288.77;;;13.47;47.35
27304;BME280;14791;52.392;13.092;2023-02-14T03:47:41;103290.00;;;13.50;47.30
27304;BME280;14791;52.392;13.092;2023-02-14T03:50:16;103289.45;;;13.54;47.15
27304;BME280;14791;52.392;13.092;2023-02-14T03:52:48;103282.26;;;13.54;47.10
27304;BME280;14791;52.392;13.092;2023-02-14T03:55:21;103283.96;;;13.57;47.09
27304;BME280;14791;52.392;13.092;2023-02-14T03:57:54;103287.99;;;13.57;47.05
27304;BME280;14791;52.392;13.092;2023-02-14T04:00:23;103278.19;;;13.56;47.02
27304;BME280;14791;52.392;13.092;2023-02-14T04:02:57;103282.22;;;13.56;46.92
27304;BME280;14791;52.392;13.092;2023-02-14T04:05:27;103277.36;;;13.54;46.84
27304;BME280;14791;52.392;13.092;2023-02-14T04:07:58;103280.16;;;13.51;46.88
27304;BME280;14791;52.392;13.092;2023-02-14T04:10:27;103275.30;;;13.49;46.85
27304;BME280;14791;52.392;13.092;2023-02-14T04:12:56;103279.02;;;13.45;46.82
27304;BME280;14791;52.392;13.092;2023-02-14T04:15:25;103276.36;;;13.43;46.85
27304;BME280;14791;52.392;13.092;2023-02-14T04:17:55;103281.33;;;13.42;46.89
27304;BME280;14791;52.392;13.092;2023-02-14T04:20:41;103280.03;;;13.40;46.91
27304;BME280;14791;52.392;13.092;2023-02-14T04:23:10;103272.09;;;13.37;47.00
27304;BME280;14791;52.392;13.092;2023-02-14T04:25:42;103276.12;;;13.37;47.04
27304;BME280;14791;52.392;13.092;2023-02-14T04:28:13;103275.72;;;13.36;47.04
27304;BME280;14791;52.392;13.092;2023-02-14T04:30:42;103273.91;;;13.37;47.01
27304;BME280;14791;52.392;13.092;2023-02-14T04:33:12;103269.84;;;13.38;47.02
27304;BME280;14791;52.392;13.092;2023-02-14T04:35:42;103274.27;;;13.39;47.01
27304;BME280;14791;52.392;13.092;2023-02-14T04:38:13;103270.23;;;13.39;47.02
27304;BME280;14791;52.392;13.092;2023-02-14T04:40:42;103270.23;;;13.39;47.05
27304;BME280;14791;52.392;13.092;2023-02-14T04:43:10;103267.04;;;13.42;47.04
27304;BME280;14791;52.392;13.092;2023-02-14T04:45:43;103260.33;;;13.42;47.05
27304;BME280;14791;52.392;13.092;2023-02-14T04:48:15;103264.75;;;13.43;47.03
27304;BME280;14791;52.392;13.092;2023-02-14T04:50:49;103266.09;;;13.43;47.04
27304;BME280;14791;52.392;13.092;2023-02-14T04:53:15;103254.02;;;13.43;47.07
27304;BME280;14791;52.392;13.092;2023-02-14T04:55:47;103257.13;;;13.44;47.10
27304;BME280;14791;52.392;13.092;2023-02-14T04:58:17;103251.77;;;13.44;47.05
27304;BME280;14791;52.392;13.092;2023-02-14T05:00:46;103262.50;;;13.44;47.07
27304;BME280;14791;52.392;13.092;2023-02-14T05:03:17;103263.41;;;13.43;47.01
27304;BME280;14791;52.392;13.092;2023-02-14T05:05:45;103260.72;;;13.43;46.97
27304;BME280;14791;52.392;13.092;2023-02-14T05:08:14;103259.45;;;13.41;46.96
27304;BME280;14791;52.392;13.092;2023-02-14T05:10:43;103256.34;;;13.40;47.05
27304;BME280;14791;52.392;13.092;2023-02-14T05:13:12;103263.92;;;13.40;47.04
27304;BME280;14791;52.392;13.092;2023-02-14T05:15:41;103253.61;;;13.42;47.07
27304;BME280;14791;52.392;13.092;2023-02-14T05:18:11;103245.12;;;13.40;46.99
27304;BME280;14791;52.392;13.092;2023-02-14T05:20:41;103250.93;;;13.42;47.00
27304;BME280;14791;52.392;13.092;2023-02-14T05:23:12;103251.84;;;13.40;47.04
27304;BME280;14791;52.392;13.092;2023-02-14T05:25:42;103240.70;;;13.39;47.03
27304;BME280;14791;52.392;13.092;2023-02-14T05:28:12;103249.23;;;13.39;46.99
27304;BME280;14791;52.392;13.092;2023-02-14T05:30:41;103245.28;;;13.36;47.03
27304;BME280;14791;52.392;13.092;2023-02-14T05:33:10;103244.84;;;13.36;47.08
27304;BME280;14791;52.392;13.092;2023-02-14T05:35:41;103245.35;;;13.34;47.11
27304;BME280;14791;52.392;13.092;2023-02-14T05:38:11;103242.67;;;13.34;47.14
27304;BME280;14791;52.392;13.092;2023-02-14T05:40:44;103245.83;;;13.34;47.17
27304;BME280;14791;52.392;13.092;2023-02-14T05:43:15;103238.21;;;13.33;47.19
27304;BME280;14791;52.392;13.092;2023-02-14T05:45:44;103230.16;;;13.33;47.19
27304;BME280;14791;52.392;13.092;2023-02-14T05:48:15;103239.55;;;13.33;47.18
27304;BME280;14791;52.392;13.092;2023-02-14T05:50:45;103236.47;;;13.32;47.07
27304;BME280;14791;52.392;13.092;2023-02-14T05:53:16;103233.42;;;13.30;46.94
27304;BME280;14791;52.392;13.092;2023-02-14T05:55:46;103233.14;;;13.24;47.00
27304;BME280;14791;52.392;13.092;2023-02-14T05:58:15;103229.67;;;13.20;47.09
27304;BME280;14791;52.392;13.092;2023-02-14T06:00:44;103231.05;;;13.19;47.14
27304;BME280;14791;52.392;13.092;2023-02-14T06:03:14;103229.34;;;13.16;47.12
27304;BME280;14791;52.392;13.092;2023-02-14T06:05:44;103230.80;;;13.13;47.07
27304;BME280;14791;52.392;13.092;2023-02-14T06:08:13;103230.44;;;13.11;47.14
27304;BME280;14791;52.392;13.092;2023-02-14T06:10:43;103239.94;;;13.08;47.17
27304;BME280;14791;52.392;13.092;2023-02-14T06:13:12;103240.84;;;13.07;47.22
27304;BME280;14791;52.392;13.092;2023-02-14T06:15:42;103239.11;;;13.06;47.20
27304;BME280;14791;52.392;13.092;2023-02-14T06:18:11;103240.48;;;13.04;47.31
27304;BME280;14791;52.392;13.092;2023-02-14T06:20:40;103246.33;;;13.04;47.40
27304;BME280;14791;52.392;13.092;2023-02-14T06:23:09;103249.00;;;13.04;47.45
27304;BME280;14791;52.392;13.092;2023-02-14T06:25:39;103245.81;;;13.06;47.48
27304;BME280;14791;52.392;13.092;2023-02-14T06:28:08;103245.78;;;13.07;47.45
27304;BME280;14791;52.392;13.092;2023-02-14T06:30:37;103250.16;;;13.10;47.45
27304;BME280;14791;52.392;13.092;2023-02-14T06:33:06;103249.63;;;13.12;47.45
27304;BME280;14791;52.392;13.092;2023-02-14T06:35:35;103241.94;;;13.14;47.42
27304;BME280;14791;52.392;13.092;2023-02-14T06:38:06;103239.64;;;13.17;47.46
27304;BME280;14791;52.392;13.092;2023-02-14T06:40:35;103241.39;;;13.18;47.49
27304;BME280;14791;52.392;13.092;2023-02-14T06:43:03;103239.02;;;13.22;47.54
27304;BME280;14791;52.392;13.092;2023-02-14T06:45:33;103246.49;;;13.26;47.49
27304;BME280;14791;52.392;13.092;2023-02-14T06:48:02;103247.83;;;13.27;47.43
27304;BME280;14791;52.392;13.092;2023-02-14T06:50:31;103238.36;;;13.29;47.42
27304;BME280;14791;52.392;13.092;2023-02-14T06:53:01;103249.02;;;13.32;47.39
27304;BME280;14791;52.392;13.092;2023-02-14T06:55:30;103249.85;;;13.34;47.35
27304;BME280;14791;52.392;13.092;2023-02-14T06:57:59;103239.98;;;13.34;47.29
27304;BME280;14791;52.392;13.092;2023-02-14T07:00:28;103243.94;;;13.36;47.38
27304;BME280;14791;52.392;13.092;2023-02-14T07:02:57;103239.87;;;13.37;47.39
27304;BME280;14791;52.392;13.092;2023-02-14T07:05:26;103246.47;;;13.40;47.34
27304;BME280;14791;52.392;13.092;2023-02-14T07:07:55;103244.22;;;13.42;47.38
27304;BME280;14791;52.392;13.092;2023-02-14T07:10:24;103246.83;;;13.43;47.39
27304;BME280;14791;52.392;13.092;2023-02-14T07:12:53;103240.51;;;13.46;47.35
27304;BME280;14791;52.392;13.092;2023-02-14T07:15:24;103242.20;;;13.48;47.24
27304;BME280;14791;52.392;13.092;2023-02-14T07:17:53;103241.30;;;13.48;47.21
27304;BME280;14791;52.392;13.092;2023-02-14T07:20:22;103241.27;;;13.49;47.18
27304;BME280;14791;52.392;13.092;2023-02-14T07:22:52;103238.62;;;13.48;47.22
27304;BME280;14791;52.392;13.092;2023-02-14T07:25:21;103238.22;;;13.47;47.26
27304;BME280;14791;52.392;13.092;2023-02-14T07:27:50;103238.62;;;13.48;47.35
27304;BME280;14791;52.392;13.092;2023-02-14T07:30:19;103239.45;;;13.50;47.41
27304;BME280;14791;52.392;13.092;2023-02-14T07:32:48;103238.02;;;13.53;47.36
27304;BME280;14791;52.392;13.092;2023-02-14T07:35:17;103246.44;;;13.55;47.38
27304;BME280;14791;52.392;13.092;2023-02-14T07:37:50;103237.39;;;13.58;47.34
27304;BME280;14791;52.392;13.092;2023-02-14T07:40:20;103235.54;;;13.60;47.31
27304;BME280;14791;52.392;13.092;2023-02-14T07:42:55;103235.83;;;13.64;47.22
27304;BME280;14791;52.392;13.092;2023-02-14T07:45:25;103240.28;;;13.65;47.22
27304;BME280;14791;52.392;13.092;2023-02-14T07:47:54;103243.36;;;13.66;47.19
27304;BME280;14791;52.392;13.092;2023-02-14T07:50:25;103230.30;;;13.69;47.12
27304;BME280;14791;52.392;13.092;2023-02-14T07:52:54;103237.36;;;13.71;47.06
27304;BME280;14791;52.392;13.092;2023-02-14T07:55:23;103234.59;;;13.74;47.11
27304;BME280;14791;52.392;13.092;2023-02-14T07:57:53;103234.98;;;13.75;47.14
27304;BME280;14791;52.392;13.092;2023-02-14T08:00:23;103237.04;;;13.80;47.10
27304;BME280;14791;52.392;13.092;2023-02-14T08:02:56;103242.38;;;13.82;47.01
27304;BME280;14791;52.392;13.092;2023-02-14T08:05:25;103240.52;;;13.84;47.07
27304;BME280;14791;52.392;13.092;2023-02-14T08:07:55;103239.52;;;13.87;47.01
27304;BME280;14791;52.392;13.092;2023-02-14T08:10:24;103234.08;;;13.88;46.95
27304;BME280;14791;52.392;13.092;2023-02-14T08:12:55;103232.64;;;13.91;46.95
27304;BME280;14791;52.392;13.092;2023-02-14T08:15:29;103239.23;;;13.94;46.91
27304;BME280;14791;52.392;13.092;2023-02-14T08:18:17;103244.97;;;13.97;46.87
27304;BME280;14791;52.392;13.092;2023-02-14T08:20:47;103240.94;;;13.97;46.86
27304;BME280;14791;52.392;13.092;2023-02-14T08:23:19;103245.80;;;13.99;46.86
27304;BME280;14791;52.392;13.092;2023-02-14T08:25:51;103245.67;;;14.02;46.84
27304;BME280;14791;52.392;13.092;2023-02-14T08:28:20;103251.83;;;14.06;46.88
27304;BME280;14791;52.392;13.092;2023-02-14T08:30:51;103254.75;;;14.11;46.79
27304;BME280;14791;52.392;13.092;2023-02-14T08:33:21;103257.74;;;14.15;46.83
27304;BME280;14791;52.392;13.092;2023-02-14T08:35:50;103262.48;;;14.20;46.72
27304;BME280;14791;52.392;13.092;2023-02-14T08:38:20;103265.00;;;14.25;46.82
27304;BME280;14791;52.392;13.092;2023-02-14T08:40:49;103263.41;;;14.31;46.61
27304;BME280;14791;52.392;13.092;2023-02-14T08:43:18;103259.72;;;14.34;46.61
27304;BME280;14791;52.392;13.092;2023-02-14T08:45:47;103260.42;;;14.39;46.54
27304;BME280;14791;52.392;13.092;2023-02-14T08:48:17;103259.38;;;14.43;46.54
27304;BME280;14791;52.392;13.092;2023-02-14T08:50:46;103259.69;;;14.47;46.57
27304;BME280;14791;52.392;13.092;2023-02-14T08:53:15;103261.72;;;14.52;46.53
27304;BME280;14791;52.392;13.092;2023-02-14T08:55:44;103270.52;;;14.57;46.44
27304;BME280;14791;52.392;13.092;2023-02-14T08:58:13;103268.52;;;14.62;46.40
27304;BME280;14791;52.392;13.092;2023-02-14T09:00:42;103262.92;;;14.68;46.34
27304;BME280;14791;52.392;13.092;2023-02-14T09:03:12;103269.00;;;14.74;46.15
27304;BME280;14791;52.392;13.092;2023-02-14T09:05:40;103278.71;;;14.78;46.06
27304;BME280;14791;52.392;13.092;2023-02-14T09:08:11;103272.38;;;14.79;46.04
27304;BME280;14791;52.392;13.092;2023-02-14T09:10:40;103280.41;;;14.80;46.00
27304;BME280;14791;52.392;13.092;2023-02-14T09:13:09;103273.67;;;14.80;45.96
27304;BME280;14791;52.392;13.092;2023-02-14T09:15:38;103274.02;;;14.83;45.91
27304;BME280;14791;52.392;13.092;2023-02-14T09:18:07;103274.37;;;14.85;45.83
27304;BME280;14791;52.392;13.092;2023-02-14T09:20:35;103274.71;;;14.88;45.86
27304;BME280;14791;52.392;13.092;2023-02-14T09:23:06;103276.45;;;14.89;45.82
27304;BME280;14791;52.392;13.092;2023-02-14T09:25:35;103270.55;;;14.91;45.72
27304;BME280;14791;52.392;13.092;2023-02-14T09:28:04;103275.01;;;14.92;45.68
27304;BME280;14791;52.392;13.092;2023-02-14T09:30:35;103273.58;;;14.94;45.75
27304;BME280;14791;52.392;13.092;2023-02-14T09:33:04;103274.48;;;14.94;45.76
27304;BME280;14791;52.392;13.092;2023-02-14T09:35:33;103268.14;;;14.95;45.71
27304;BME280;14791;52.392;13.092;2023-02-14T09:38:01;103272.53;;;14.98;45.63
27304;BME280;14791;52.392;13.092;2023-02-14T09:40:32;103277.44;;;14.98;45.61
27304;BME280;14791;52.392;13.092;2023-02-14T09:43:21;103277.86;;;14.99;45.57
27304;BME280;14791;52.392;13.092;2023-02-14T09:45:53;103286.33;;;15.00;45.56
27304;BME280;14791;52.392;13.092;2023-02-14T09:48:34;103280.13;;;14.98;45.70
27304;BME280;14791;52.392;13.092;2023-02-14T09:51:06;103281.42;;;15.00;45.68
27304;BME280;14791;52.392;13.092;2023-02-14T09:53:45;103279.59;;;15.00;45.67
27304;BME280;14791;52.392;13.092;2023-02-14T09:59:25;103283.41;;;15.06;45.58
27304;BME280;14791;52.392;13.092;2023-02-14T10:05:14;103283.80;;;15.07;45.61
27304;BME280;14791;52.392;13.092;2023-02-14T10:08:10;103286.48;;;15.07;45.64
27304;BME280;14791;52.392;13.092;2023-02-14T10:10:38;103292.35;;;15.07;45.64
27304;BME280;14791;52.392;13.092;2023-02-14T10:15:45;103287.36;;;15.08;45.22
27304;BME280;14791;52.392;13.092;2023-02-14T10:18:20;103282.45;;;15.07;45.18
27304;BME280;14791;52.392;13.092;2023-02-14T10:20:55;103278.84;;;15.08;45.12
27304;BME280;14791;52.392;13.092;2023-02-14T10:23:41;103278.36;;;15.09;44.96
27304;BME280;14791;52.392;13.092;2023-02-14T10:26:10;103279.37;;;15.06;44.67
27304;BME280;14791;52.392;13.092;2023-02-14T10:28:46;103281.47;;;14.98;44.58
27304;BME280;14791;52.392;13.092;2023-02-14T10:31:24;103277.22;;;14.93;44.52
27304;BME280;14791;52.392;13.092;2023-02-14T10:34:03;103268.51;;;14.86;44.62
27304;BME280;14791;52.392;13.092;2023-02-14T10:36:55;103267.42;;;14.80;44.62
27304;BME280;14791;52.392;13.092;2023-02-14T10:42:33;103258.89;;;14.68;44.65
27304;BME280;14791;52.392;13.092;2023-02-14T10:45:09;103268.13;;;14.61;44.55
27304;BME280;14791;52.392;13.092;2023-02-14T10:48:04;103264.54;;;14.49;44.52
27304;BME280;14791;52.392;13.092;2023-02-14T10:50:20;103268.57;;;14.37;44.54
27304;BME280;14791;52.392;13.092;2023-02-14T10:55:34;103267.42;;;14.19;44.82
27304;BME280;14791;52.392;13.092;2023-02-14T10:58:00;103265.80;;;14.15;45.01
27304;BME280;14791;52.392;13.092;2023-02-14T11:00:36;103267.55;;;14.16;45.36
27304;BME280;14791;52.392;13.092;2023-02-14T11:03:10;103263.82;;;14.20;45.37
27304;BME280;14791;52.392;13.092;2023-02-14T11:05:46;103260.02;;;14.26;45.73
27304;BME280;14791;52.392;13.092;2023-02-14T11:08:36;103257.03;;;14.34;45.48
27304;BME280;14791;52.392;13.092;2023-02-14T11:13:54;103254.00;;;14.43;45.31
27304;BME280;14791;52.392;13.092;2023-02-14T11:16:34;103258.46;;;14.44;45.46
27304;BME280;14791;52.392;13.092;2023-02-14T11:19:08;103254.70;;;14.48;45.35
27304;BME280;14791;52.392;13.092;2023-02-14T11:21:39;103258.08;;;14.53;45.36
27304;BME280;14791;52.392;13.092;2023-02-14T11:24:31;103255.60;;;14.60;45.23
27304;BME280;14791;52.392;13.092;2023-02-14T11:32:12;103247.47;;;14.74;44.63
27304;BME280;14791;52.392;13.092;2023-02-14T11:35:04;103243.96;;;14.72;44.44
27304;BME280;14791;52.392;13.092;2023-02-14T11:38:37;103238.28;;;14.67;44.38
27304;BME280;14791;52.392;13.092;2023-02-14T11:40:34;103240.02;;;14.58;44.49
27304;BME280;14791;52.392;13.092;2023-02-14T11:45:43;103244.46;;;14.46;44.70
27304;BME280;14791;52.392;13.092;2023-02-14T11:48:27;103233.36;;;14.43;44.80
27304;BME280;14791;52.392;13.092;2023-02-14T11:50:59;103241.25;;;14.48;44.89
27304;BME280;14791;52.392;13.092;2023-02-14T11:53:47;103234.83;;;14.52;44.91
27304;BME280;14791;52.392;13.092;2023-02-14T11:56:19;103222.11;;;14.57;44.86
27304;BME280;14791;52.392;13.092;2023-02-14T11:58:57;103223.75;;;14.61;44.93
27304;BME280;14791;52.392;13.092;2023-02-14T12:01:29;103226.17;;;14.67;44.85
27304;BME280;14791;52.392;13.092;2023-02-14T12:04:02;103213.89;;;14.72;44.84
27304;BME280;14791;52.392;13.092;2023-02-14T12:06:33;103216.35;;;14.78;44.87
27304;BME280;14791;52.392;13.092;2023-02-14T12:11:55;103211.42;;;14.89;44.96
27304;BME280;14791;52.392;13.092;2023-02-14T12:14:29;103210.42;;;14.92;44.94
27304;BME280;14791;52.392;13.092;2023-02-14T12:17:03;103209.33;;;14.96;44.70
27304;BME280;14791;52.392;13.092;2023-02-14T12:19:52;103199.80;;;14.99;44.59
27304;BME280;14791;52.392;13.092;2023-02-14T12:22:20;103197.71;;;15.06;44.46
27304;BME280;14791;52.392;13.092;2023-02-14T12:25:11;103185.55;;;15.07;44.45
27304;BME280;14791;52.392;13.092;2023-02-14T12:30:21;103185.97;;;15.08;44.37
27304;BME280;14791;52.392;13.092;2023-02-14T12:32:54;103178.87;;;15.06;44.31
27304;BME280;14791;52.392;13.092;2023-02-14T12:38:21;103173.77;;;15.10;44.31
27304;BME280;14791;52.392;13.092;2023-02-14T12:43:47;103157.95;;;15.13;44.31
27304;BME280;14791;52.392;13.092;2023-02-14T12:49:22;103152.57;;;15.13;44.24
27304;BME280;14791;52.392;13.092;2023-02-14T13:03:19;103140.66;;;15.08;44.21
27304;BME280;14791;52.392;13.092;2023-02-14T13:05:59;103141.41;;;15.01;44.19
27304;BME280;14791;52.392;13.092;2023-02-14T13:11:40;103136.13;;;14.88;44.02
27304;BME280;14791;52.392;13.092;2023-02-14T13:14:30;103136.02;;;14.79;44.19
27304;BME280;14791;52.392;13.092;2023-02-14T13:17:18;103145.63;;;14.75;44.31
27304;BME280;14791;52.392;13.092;2023-02-14T13:22:33;103133.66;;;14.72;44.51
27304;BME280;14791;52.392;13.092;2023-02-14T13:25:09;103132.31;;;14.72;44.63
27304;BME280;14791;52.392;13.092;2023-02-14T13:27:37;103130.30;;;14.77;44.51
27304;BME280;14791;52.392;13.092;2023-02-14T13:30:13;103129.25;;;14.81;44.52
27304;BME280;14791;52.392;13.092;2023-02-14T13:32:43;103134.44;;;14.85;44.48
27304;BME280;14791;52.392;13.092;2023-02-14T13:35:18;103111.91;;;14.88;44.37
27304;BME280;14791;52.392;13.092;2023-02-14T13:37:54;103116.76;;;14.90;44.26
27304;BME280;14791;52.392;13.092;2023-02-14T13:40:26;103109.50;;;14.92;44.33
27304;BME280;14791;52.392;13.092;2023-02-14T13:42:58;103115.75;;;14.93;44.30
27304;BME280;14791;52.392;13.092;2023-02-14T13:48:29;103113.25;;;14.98;44.38
27304;BME280;14791;52.392;13.092;2023-02-14T13:51:02;103105.99;;;15.00;44.43
27304;BME280;14791;52.392;13.092;2023-02-14T13:53:39;103105.47;;;15.02;44.45
27304;BME280;14791;52.392;13.092;2023-02-14T13:58:48;103105.13;;;15.10;44.26
27304;BME280;14791;52.392;13.092;2023-02-14T14:04:51;103106.70;;;15.16;44.14
27304;BME280;14791;52.392;13.092;2023-02-14T14:15:08;103106.56;;;15.08;44.13
27304;BME280;14791;52.392;13.092;2023-02-14T14:17:44;103098.20;;;15.04;44.14
27304;BME280;14791;52.392;13.092;2023-02-14T14:22:55;103098.34;;;15.01;43.99
27304;BME280;14791;52.392;13.092;2023-02-14T14:25:36;103098.40;;;15.00;44.14
27304;BME280;14791;52.392;13.092;2023-02-14T14:28:16;103091.33;;;14.97;44.07
27304;BME280;14791;52.392;13.092;2023-02-14T14:30:42;103091.86;;;14.95;44.07
27304;BME280;14791;52.392;13.092;2023-02-14T14:33:13;103094.95;;;14.96;44.03
27304;BME280;14791;52.392;13.092;2023-02-14T14:36:03;103089.56;;;14.96;43.97
27304;BME280;14791;52.392;13.092;2023-02-14T14:38:33;103088.30;;;14.95;43.89
27304;BME280;14791;52.392;13.092;2023-02-14T14:41:03;103090.72;;;14.91;43.99
27304;BME280;14791;52.392;13.092;2023-02-14T14:43:37;103084.94;;;14.89;43.93
27304;BME280;14791;52.392;13.092;2023-02-14T14:46:13;103080.48;;;14.88;44.02
27304;BME280;14791;52.392;13.092;2023-02-14T14:48:44;103087.30;;;14.87;44.07
27304;BME280;14791;52.392;13.092;2023-02-14T14:51:27;103083.79;;;14.85;44.07
27304;BME280;14791;52.392;13.092;2023-02-14T14:54:04;103080.67;;;14.84;44.06
27304;BME280;14791;52.392;13.092;2023-02-14T14:56:36;103076.78;;;14.81;44.08
27304;BME280;14791;52.392;13.092;2023-02-14T14:59:30;103077.73;;;14.80;44.04
27304;BME280;14791;52.392;13.092;2023-02-14T15:02:02;103071.93;;;14.79;44.08
27304;BME280;14791;52.392;13.092;2023-02-14T15:04:33;103071.73;;;14.73;44.43
27304;BME280;14791;52.392;13.092;2023-02-14T15:07:31;103081.63;;;14.73;44.22
27304;BME280;14791;52.392;13.092;2023-02-14T15:09:58;103072.31;;;14.70;44.02
27304;BME280;14791;52.392;13.092;2023-02-14T15:12:28;103065.58;;;14.59;43.99